createdAt,value
2023-04-24T00:00:59.446Z,11.12
2023-04-24T00:05:02.374Z,11.18
2023-04-24T00:09:04.263Z,11.19
2023-04-24T00:13:05.696Z,11.22
2023-04-24T00:17:07.240Z,11.28
2023-04-24T00:21:10.050Z,11.22
2023-04-24T00:25:11.491Z,11.15
2023-04-24T00:29:13.021Z,11.03
2023-04-24T00:33:14.735Z,11.02
2023-04-24T00:37:17.493Z,11.01
2023-04-24T00:41:18.975Z,11.02
2023-04-24T00:45:20.762Z,10.76
2023-04-24T00:49:22.828Z,10.69
2023-04-24T00:53:25.644Z,10.83
2023-04-24T00:57:27.569Z,10.88
2023-04-24T01:01:29.085Z,10.90
2023-04-24T01:05:30.591Z,10.93
2023-04-24T01:09:33.480Z,10.93
2023-04-24T01:13:35.405Z,10.93
2023-04-24T01:17:36.929Z,10.88
2023-04-24T01:21:39.017Z,10.90
2023-04-24T01:25:42.150Z,10.95
2023-04-24T01:29:43.833Z,11.08
2023-04-24T01:33:45.459Z,11.09
2023-04-24T01:37:47.196Z,11.12
2023-04-24T01:41:50.056Z,11.18
2023-04-24T01:45:51.478Z,11.13
2023-04-24T01:49:52.936Z,11.22
2023-04-24T01:53:54.470Z,11.25
2023-04-24T01:57:57.692Z,11.29
2023-04-24T02:01:59.156Z,11.18
2023-04-24T02:06:00.621Z,11.12
2023-04-24T02:10:02.153Z,11.11
2023-04-24T02:14:04.971Z,11.07
2023-04-24T02:18:06.535Z,11.01
2023-04-24T02:22:08.161Z,11.21
2023-04-24T02:26:10.058Z,11.23
2023-04-24T02:30:13.564Z,11.23
2023-04-24T02:34:15.134Z,11.14
2023-04-24T02:38:16.632Z,11.12
2023-04-24T02:42:18.069Z,11.08
2023-04-24T02:46:20.875Z,11.06
2023-04-24T02:50:22.457Z,11.00
2023-04-24T02:54:23.900Z,10.97
2023-04-24T02:58:25.601Z,11.00
2023-04-24T03:02:28.495Z,11.07
2023-04-24T03:06:30.052Z,11.05
2023-04-24T03:10:31.544Z,11.01
2023-04-24T03:14:33.149Z,11.04
2023-04-24T03:18:35.943Z,10.97
2023-04-24T03:22:37.453Z,11.03
2023-04-24T03:26:38.872Z,10.95
2023-04-24T03:30:40.317Z,10.99
2023-04-24T03:34:43.118Z,11.06
2023-04-24T03:38:44.558Z,11.04
2023-04-24T03:42:45.987Z,11.03
2023-04-24T03:46:47.407Z,11.10
2023-04-24T03:50:50.198Z,11.07
2023-04-24T03:54:51.685Z,11.08
2023-04-24T03:58:53.109Z,11.08
2023-04-24T04:02:54.638Z,11.07
2023-04-24T04:06:57.581Z,11.03
2023-04-24T04:10:59.023Z,11.25
2023-04-24T04:15:00.478Z,11.22
2023-04-24T04:19:01.981Z,11.16
2023-04-24T04:23:04.868Z,11.10
2023-04-24T04:27:06.373Z,11.08
2023-04-24T04:31:07.906Z,11.11
2023-04-24T04:35:09.382Z,11.01
2023-04-24T04:39:12.148Z,11.09
2023-04-24T04:43:13.627Z,11.19
2023-04-24T04:47:15.183Z,11.16
2023-04-24T04:51:16.623Z,11.13
2023-04-24T04:55:19.476Z,11.15
2023-04-24T04:59:20.980Z,11.16
2023-04-24T05:03:22.479Z,11.28
2023-04-24T05:07:24.009Z,11.31
2023-04-24T05:11:26.843Z,11.33
2023-04-24T05:15:28.263Z,11.35
2023-04-24T05:19:29.870Z,11.45
2023-04-24T05:23:31.316Z,11.51
2023-04-24T05:27:34.104Z,11.54
2023-04-24T05:31:35.594Z,11.62
2023-04-24T05:35:37.037Z,11.71
2023-04-24T05:39:38.518Z,11.86
2023-04-24T05:43:41.317Z,11.92
2023-04-24T05:47:42.852Z,12.05
2023-04-24T05:51:44.391Z,12.20
2023-04-24T05:55:46.201Z,12.33
2023-04-24T05:59:49.044Z,12.46
2023-04-24T06:03:50.654Z,12.59
2023-04-24T06:07:52.457Z,12.45
2023-04-24T06:11:53.982Z,12.58
2023-04-24T06:15:56.854Z,12.58
2023-04-24T06:19:58.337Z,12.53
2023-04-24T06:23:59.753Z,12.62
2023-04-24T06:28:01.487Z,12.76
2023-04-24T06:32:04.356Z,12.92
2023-04-24T06:36:06.263Z,13.00
2023-04-24T06:40:08.881Z,12.97
2023-04-24T06:44:10.390Z,13.08
2023-04-24T06:48:13.353Z,13.19
2023-04-24T06:52:14.894Z,13.26
2023-04-24T06:56:16.481Z,13.45
2023-04-24T07:00:18.300Z,13.71
2023-04-24T07:04:21.303Z,14.01
2023-04-24T07:08:22.902Z,14.31
2023-04-24T07:12:24.357Z,14.44
2023-04-24T07:16:25.890Z,14.37
2023-04-24T07:20:28.723Z,14.42
2023-04-24T07:24:30.898Z,14.38
2023-04-24T07:28:32.411Z,14.40
2023-04-24T07:32:33.856Z,14.30
2023-04-24T07:36:36.784Z,14.38
2023-04-24T07:40:38.223Z,14.37
2023-04-24T07:44:39.683Z,14.57
2023-04-24T07:48:41.104Z,14.55
2023-04-24T07:52:43.900Z,14.47
2023-04-24T07:56:45.363Z,14.80
2023-04-24T08:00:46.814Z,14.74
2023-04-24T08:04:48.430Z,14.99
2023-04-24T08:08:51.337Z,14.98
2023-04-24T08:12:53.102Z,15.15
2023-04-24T08:16:54.816Z,14.73
2023-04-24T08:20:56.256Z,14.58
2023-04-24T08:25:01.018Z,15.05
2023-04-24T08:29:02.526Z,15.09
2023-04-24T08:33:04.181Z,15.19
2023-04-24T08:37:05.680Z,15.08
2023-04-24T08:41:08.517Z,15.18
2023-04-24T08:45:11.269Z,14.58
2023-04-24T08:49:13.978Z,15.07
2023-04-24T08:53:15.897Z,14.92
2023-04-24T08:57:19.523Z,14.93
2023-04-24T09:01:21.509Z,14.78
2023-04-24T09:05:25.391Z,14.95
2023-04-24T09:09:31.352Z,14.87
2023-04-24T09:13:34.528Z,14.84
2023-04-24T09:17:36.120Z,15.13
2023-04-24T09:21:37.628Z,15.09
2023-04-24T09:25:39.131Z,15.08
2023-04-24T09:29:54.500Z,15.21
2023-04-24T09:33:59.035Z,15.05
2023-04-24T09:38:01.981Z,15.04
2023-04-24T09:42:03.922Z,15.12
2023-04-24T09:46:08.492Z,15.18
2023-04-24T09:50:11.540Z,15.00
2023-04-24T09:54:17.223Z,14.86
2023-04-24T09:58:18.656Z,15.24
2023-04-24T10:02:22.066Z,15.39
2023-04-24T10:06:23.622Z,15.12
2023-04-24T10:10:25.194Z,15.58
2023-04-24T10:14:26.712Z,15.56
2023-04-24T10:18:30.805Z,14.96
2023-04-24T10:22:33.691Z,14.92
2023-04-24T10:26:35.993Z,15.47
2023-04-24T10:30:37.474Z,16.13
2023-04-24T10:34:40.361Z,16.01
2023-04-24T10:38:45.507Z,15.94
2023-04-24T10:42:53.066Z,15.52
2023-04-24T10:46:56.338Z,15.83
2023-04-24T10:50:59.569Z,16.15
2023-04-24T10:55:02.683Z,16.24
2023-04-24T10:59:08.646Z,16.84
2023-04-24T11:03:25.135Z,16.46
2023-04-24T11:07:28.204Z,15.93
2023-04-24T11:11:30.721Z,15.25
2023-04-24T11:15:32.176Z,15.56
2023-04-24T11:19:34.854Z,15.58
2023-04-24T11:23:38.281Z,15.51
2023-04-24T11:27:41.552Z,15.57
2023-04-24T11:31:45.633Z,15.65
2023-04-24T11:35:48.236Z,15.27
2023-04-24T11:39:53.780Z,15.43
2023-04-24T11:43:57.365Z,15.90
2023-04-24T11:47:59.769Z,15.90
2023-04-24T11:52:01.586Z,15.32
2023-04-24T11:56:05.340Z,14.97
2023-04-24T12:00:09.155Z,14.45
2023-04-24T12:04:11.146Z,14.28
2023-04-24T12:08:12.772Z,14.28
2023-04-24T12:12:18.103Z,14.99
2023-04-24T12:16:19.636Z,15.87
2023-04-24T12:20:25.948Z,16.53
2023-04-24T12:24:27.413Z,16.13
2023-04-24T12:28:37.729Z,16.35
2023-04-24T12:32:42.754Z,16.82
2023-04-24T12:36:44.290Z,15.92
2023-04-24T12:40:46.026Z,15.17
2023-04-24T12:44:48.797Z,14.82
2023-04-24T12:48:50.218Z,14.81
2023-04-24T12:52:51.682Z,15.29
2023-04-24T12:56:53.257Z,16.55
2023-04-24T13:00:56.140Z,17.85
2023-04-24T13:04:58.691Z,18.67
2023-04-24T13:09:00.462Z,18.94
2023-04-24T13:13:01.986Z,19.52
2023-04-24T13:17:05.370Z,16.98
2023-04-24T13:21:06.830Z,17.96
2023-04-24T13:25:08.677Z,18.44
2023-04-24T13:29:10.502Z,20.51
2023-04-24T13:33:13.367Z,18.47
2023-04-24T13:37:14.835Z,19.44
2023-04-24T13:41:16.317Z,19.69
2023-04-24T13:45:24.819Z,16.93
2023-04-24T13:49:29.087Z,15.38
2023-04-24T13:53:30.536Z,16.68
2023-04-24T13:57:32.033Z,18.37
2023-04-24T14:01:33.628Z,18.51
2023-04-24T14:05:38.339Z,18.84
2023-04-24T14:09:40.272Z,19.75
2023-04-24T14:13:42.696Z,17.57
2023-04-24T14:17:44.437Z,16.91
2023-04-24T14:21:47.479Z,17.93
2023-04-24T14:25:48.955Z,19.07
2023-04-24T14:29:50.378Z,20.00
2023-04-24T14:33:51.931Z,18.09
2023-04-24T14:37:55.400Z,19.06
2023-04-24T14:41:56.838Z,19.49
2023-04-24T14:45:58.309Z,18.53
2023-04-24T14:49:59.956Z,18.08
2023-04-24T14:54:02.860Z,16.88
2023-04-24T14:58:04.902Z,16.84
2023-04-24T15:02:16.057Z,16.03
2023-04-24T15:06:18.398Z,16.18
2023-04-24T15:10:21.263Z,16.27
2023-04-24T15:14:24.637Z,15.59
2023-04-24T15:18:26.071Z,15.45
2023-04-24T15:22:27.646Z,15.12
2023-04-24T15:26:30.593Z,14.85
2023-04-24T15:30:32.245Z,14.55
2023-04-24T15:34:33.705Z,14.30
2023-04-24T15:38:35.179Z,14.54
2023-04-24T15:42:38.070Z,14.74
2023-04-24T15:46:39.724Z,14.58
2023-04-24T15:50:41.182Z,14.13
2023-04-24T15:54:42.661Z,14.19
2023-04-24T15:58:45.848Z,14.08
2023-04-24T16:02:47.723Z,14.20
2023-04-24T16:06:49.271Z,14.10
2023-04-24T16:10:50.893Z,14.12
2023-04-24T16:14:54.124Z,13.97
2023-04-24T16:18:55.540Z,13.94
2023-04-24T16:22:56.981Z,13.93
2023-04-24T16:26:58.497Z,13.75
2023-04-24T16:31:01.327Z,13.67
2023-04-24T16:35:02.828Z,13.67
2023-04-24T16:39:04.997Z,13.55
2023-04-24T16:43:06.469Z,13.54
2023-04-24T16:47:10.624Z,13.32
2023-04-24T16:51:12.529Z,13.19
2023-04-24T16:55:13.948Z,12.97
2023-04-24T16:59:15.393Z,13.04
2023-04-24T17:03:18.317Z,12.94
2023-04-24T17:07:20.031Z,12.66
2023-04-24T17:11:21.465Z,12.53
2023-04-24T17:15:23.015Z,12.47
2023-04-24T17:19:25.829Z,12.47
2023-04-24T17:23:27.296Z,12.42
2023-04-24T17:27:28.725Z,12.31
2023-04-24T17:31:30.178Z,12.28
2023-04-24T17:35:33.301Z,12.25
2023-04-24T17:39:34.787Z,12.14
2023-04-24T17:43:36.312Z,12.08
2023-04-24T17:47:37.985Z,12.09
2023-04-24T17:51:40.814Z,11.72
2023-04-24T17:55:42.466Z,11.44
2023-04-24T17:59:43.920Z,11.22
2023-04-24T18:03:45.549Z,11.04
2023-04-24T18:07:48.449Z,10.81
2023-04-24T18:11:49.914Z,10.64
2023-04-24T18:15:51.389Z,10.57
2023-04-24T18:19:52.833Z,10.42
2023-04-24T18:23:55.677Z,10.38
2023-04-24T18:27:57.356Z,10.25
2023-04-24T18:31:58.879Z,10.13
2023-04-24T18:36:00.492Z,10.07
2023-04-24T18:40:03.509Z,9.96
2023-04-24T18:44:04.963Z,9.85
2023-04-24T18:48:06.763Z,9.77
2023-04-24T18:52:08.399Z,9.79
2023-04-24T18:56:11.318Z,9.71
2023-04-24T19:00:13.855Z,9.74
2023-04-24T19:04:15.459Z,9.59
2023-04-24T19:08:16.948Z,9.48
2023-04-24T19:12:21.000Z,9.45
2023-04-24T19:16:24.234Z,9.54
2023-04-24T19:20:26.484Z,9.30
2023-04-24T19:24:28.081Z,9.20
2023-04-24T19:28:30.892Z,9.10
2023-04-24T19:32:32.376Z,9.01
2023-04-24T19:36:34.102Z,8.89
2023-04-24T19:40:35.594Z,8.90
2023-04-24T19:44:38.374Z,8.88
2023-04-24T19:48:40.049Z,8.86
2023-04-24T19:52:41.495Z,8.91
2023-04-24T19:56:42.953Z,8.86
2023-04-24T20:00:45.852Z,8.93
2023-04-24T20:04:47.522Z,8.88
2023-04-24T20:08:49.364Z,8.96
2023-04-24T20:12:51.141Z,8.93
2023-04-24T20:16:53.946Z,8.88
2023-04-24T20:20:55.688Z,8.86
2023-04-24T20:24:57.188Z,8.71
2023-04-24T20:28:58.642Z,8.73
2023-04-24T20:33:01.501Z,8.56
2023-04-24T20:37:03.012Z,8.50
2023-04-24T20:41:04.484Z,8.37
2023-04-24T20:45:07.005Z,8.35
2023-04-24T20:49:09.905Z,8.34
2023-04-24T20:53:11.328Z,8.45
2023-04-24T20:57:12.914Z,8.51
2023-04-24T21:01:14.773Z,8.48
2023-04-24T21:05:17.851Z,8.44
2023-04-24T21:09:19.301Z,8.38
2023-04-24T21:13:20.748Z,8.31
2023-04-24T21:17:22.282Z,8.30
2023-04-24T21:21:25.166Z,8.14
2023-04-24T21:25:27.208Z,8.09
2023-04-24T21:29:29.331Z,8.00
2023-04-24T21:33:30.760Z,7.87
2023-04-24T21:37:33.824Z,7.77
2023-04-24T21:41:35.414Z,7.72
2023-04-24T21:45:36.898Z,7.69
2023-04-24T21:49:38.331Z,7.77
2023-04-24T21:53:41.098Z,7.86
2023-04-24T21:57:42.650Z,7.83
2023-04-24T22:01:44.166Z,7.79
2023-04-24T22:05:45.676Z,7.83
2023-04-24T22:09:48.581Z,7.78
2023-04-24T22:13:50.240Z,7.62
2023-04-24T22:17:51.906Z,7.45
2023-04-24T22:21:53.490Z,7.19
2023-04-24T22:25:56.269Z,7.04
2023-04-24T22:29:57.836Z,6.96
2023-04-24T22:33:59.321Z,6.95
2023-04-24T22:38:00.747Z,6.91
2023-04-24T22:42:03.878Z,6.83
2023-04-24T22:46:05.444Z,6.76
2023-04-24T22:50:07.946Z,6.66
2023-04-24T22:54:09.378Z,6.57
2023-04-24T22:58:12.402Z,6.46
2023-04-24T23:02:13.901Z,6.38
2023-04-24T23:06:15.361Z,6.30
2023-04-24T23:10:16.863Z,6.19
2023-04-24T23:14:19.660Z,6.27
2023-04-24T23:18:21.140Z,6.25
2023-04-24T23:22:23.045Z,6.21
2023-04-24T23:26:24.668Z,6.11
2023-04-24T23:30:27.536Z,5.98
2023-04-24T23:34:29.019Z,5.94
2023-04-24T23:38:39.622Z,6.00
2023-04-24T23:42:54.081Z,5.98
2023-04-24T23:47:06.420Z,5.88
2023-04-24T23:51:07.870Z,5.96
2023-04-24T23:55:09.588Z,6.15
2023-04-24T23:59:11.092Z,6.41
